sensor_id;sensor_type;location;lat;lon;timestamp;P1;durP1;ratioP1;P2;durP2;ratioP2
51724;SDS011;37801;53.224;6.552;2023-02-15T00:01:30;50.78;;;29.23;;
51724;SDS011;37801;53.224;6.552;2023-02-15T00:03:57;51.28;;;29.15;;
51724;SDS011;37801;53.224;6.552;2023-02-15T00:06:22;51.72;;;28.88;;
51724;SDS011;37801;53.224;6.552;2023-02-15T00:08:48;53.30;;;29.70;;
51724;SDS011;37801;53.224;6.552;2023-02-15T00:11:16;50.25;;;28.70;;
51724;SDS011;37801;53.224;6.552;2023-02-15T00:14:10;50.05;;;28.60;;
51724;SDS011;37801;53.224;6.552;2023-02-15T00:16:36;52.83;;;30.25;;
51724;SDS011;37801;53.224;6.552;2023-02-15T00:19:03;49.22;;;27.45;;
51724;SDS011;37801;53.224;6.552;2023-02-15T00:21:30;52.72;;;28.70;;
51724;SDS011;37801;53.224;6.552;2023-02-15T00:23:57;55.33;;;29.10;;
51724;SDS011;37801;53.224;6.552;2023-02-15T00:26:24;52.58;;;29.48;;
51724;SDS011;37801;53.224;6.552;2023-02-15T00:28:54;54.53;;;28.90;;
51724;SDS011;37801;53.224;6.552;2023-02-15T00:31:21;48.58;;;27.70;;
51724;SDS011;37801;53.224;6.552;2023-02-15T00:33:47;51.85;;;28.08;;
51724;SDS011;37801;53.224;6.552;2023-02-15T00:36:13;50.60;;;29.17;;
51724;SDS011;37801;53.224;6.552;2023-02-15T00:38:39;51.67;;;29.38;;
51724;SDS011;37801;53.224;6.552;2023-02-15T00:41:06;49.05;;;27.25;;
51724;SDS011;37801;53.224;6.552;2023-02-15T00:43:33;50.20;;;28.73;;
51724;SDS011;37801;53.224;6.552;2023-02-15T00:46:00;48.03;;;27.75;;
51724;SDS011;37801;53.224;6.552;2023-02-15T00:48:26;48.20;;;27.05;;
51724;SDS011;37801;53.224;6.552;2023-02-15T00:50:53;49.50;;;27.77;;
51724;SDS011;37801;53.224;6.552;2023-02-15T00:53:20;47.15;;;27.25;;
51724;SDS011;37801;53.224;6.552;2023-02-15T00:55:46;46.67;;;26.48;;
51724;SDS011;37801;53.224;6.552;2023-02-15T00:58:12;51.63;;;26.77;;
51724;SDS011;37801;53.224;6.552;2023-02-15T01:00:40;49.05;;;28.25;;
51724;SDS011;37801;53.224;6.552;2023-02-15T01:03:07;45.63;;;26.42;;
51724;SDS011;37801;53.224;6.552;2023-02-15T01:05:33;47.25;;;27.33;;
51724;SDS011;37801;53.224;6.552;2023-02-15T01:07:59;48.85;;;27.65;;
51724;SDS011;37801;53.224;6.552;2023-02-15T01:10:25;50.42;;;27.58;;
51724;SDS011;37801;53.224;6.552;2023-02-15T01:12:52;48.72;;;27.45;;
51724;SDS011;37801;53.224;6.552;2023-02-15T01:15:19;52.28;;;27.58;;
51724;SDS011;37801;53.224;6.552;2023-02-15T01:17:45;47.10;;;26.90;;
51724;SDS011;37801;53.224;6.552;2023-02-15T01:20:16;47.42;;;26.92;;
51724;SDS011;37801;53.224;6.552;2023-02-15T01:22:43;46.78;;;26.92;;
51724;SDS011;37801;53.224;6.552;2023-02-15T01:25:09;48.80;;;27.17;;
51724;SDS011;37801;53.224;6.552;2023-02-15T01:27:34;52.38;;;27.38;;
51724;SDS011;37801;53.224;6.552;2023-02-15T01:30:00;51.10;;;26.90;;
51724;SDS011;37801;53.224;6.552;2023-02-15T01:32:26;45.47;;;27.50;;
51724;SDS011;37801;53.224;6.552;2023-02-15T01:34:52;49.20;;;27.20;;
51724;SDS011;37801;53.224;6.552;2023-02-15T01:37:18;47.92;;;26.75;;
51724;SDS011;37801;53.224;6.552;2023-02-15T01:39:44;48.42;;;27.23;;
51724;SDS011;37801;53.224;6.552;2023-02-15T01:42:12;48.75;;;27.38;;
51724;SDS011;37801;53.224;6.552;2023-02-15T01:44:45;46.25;;;26.50;;
51724;SDS011;37801;53.224;6.552;2023-02-15T01:47:13;44.55;;;26.17;;
51724;SDS011;37801;53.224;6.552;2023-02-15T01:49:48;49.97;;;27.63;;
51724;SDS011;37801;53.224;6.552;2023-02-15T01:52:16;46.55;;;26.40;;
51724;SDS011;37801;53.224;6.552;2023-02-15T01:54:44;45.47;;;26.90;;
51724;SDS011;37801;53.224;6.552;2023-02-15T01:57:12;52.53;;;27.80;;
51724;SDS011;37801;53.224;6.552;2023-02-15T01:59:44;50.45;;;27.10;;
51724;SDS011;37801;53.224;6.552;2023-02-15T02:02:14;44.17;;;25.60;;
51724;SDS011;37801;53.224;6.552;2023-02-15T02:04:46;47.33;;;26.45;;
51724;SDS011;37801;53.224;6.552;2023-02-15T02:07:15;48.92;;;26.77;;
51724;SDS011;37801;53.224;6.552;2023-02-15T02:09:44;47.45;;;27.08;;
51724;SDS011;37801;53.224;6.552;2023-02-15T02:12:10;48.30;;;27.70;;
51724;SDS011;37801;53.224;6.552;2023-02-15T02:14:36;43.78;;;25.98;;
51724;SDS011;37801;53.224;6.552;2023-02-15T02:17:06;45.42;;;26.85;;
51724;SDS011;37801;53.224;6.552;2023-02-15T02:30:48;46.55;;;26.27;;
51724;SDS011;37801;53.224;6.552;2023-02-15T02:33:20;45.67;;;26.17;;
51724;SDS011;37801;53.224;6.552;2023-02-15T02:45:08;46.63;;;25.67;;
51724;SDS011;37801;53.224;6.552;2023-02-15T02:47:44;49.20;;;26.08;;
51724;SDS011;37801;53.224;6.552;2023-02-15T02:50:15;42.13;;;25.83;;
51724;SDS011;37801;53.224;6.552;2023-02-15T02:52:49;44.10;;;25.90;;
51724;SDS011;37801;53.224;6.552;2023-02-15T02:55:27;45.35;;;26.05;;
51724;SDS011;37801;53.224;6.552;2023-02-15T03:00:52;43.90;;;25.27;;
51724;SDS011;37801;53.224;6.552;2023-02-15T03:03:30;43.85;;;24.55;;
51724;SDS011;37801;53.224;6.552;2023-02-15T03:05:58;43.42;;;25.33;;
51724;SDS011;37801;53.224;6.552;2023-02-15T03:08:36;45.28;;;25.58;;
51724;SDS011;37801;53.224;6.552;2023-02-15T03:11:07;42.22;;;25.05;;
51724;SDS011;37801;53.224;6.552;2023-02-15T03:13:33;38.60;;;24.02;;
51724;SDS011;37801;53.224;6.552;2023-02-15T03:16:00;43.63;;;25.88;;
51724;SDS011;37801;53.224;6.552;2023-02-15T03:18:47;37.72;;;23.42;;
51724;SDS011;37801;53.224;6.552;2023-02-15T03:21:23;41.97;;;24.92;;
51724;SDS011;37801;53.224;6.552;2023-02-15T03:24:39;41.10;;;23.02;;
51724;SDS011;37801;53.224;6.552;2023-02-15T03:27:10;38.53;;;23.45;;
51724;SDS011;37801;53.224;6.552;2023-02-15T03:29:42;41.67;;;23.85;;
51724;SDS011;37801;53.224;6.552;2023-02-15T03:32:11;40.80;;;24.05;;
51724;SDS011;37801;53.224;6.552;2023-02-15T03:34:39;37.58;;;22.88;;
51724;SDS011;37801;53.224;6.552;2023-02-15T03:37:10;41.13;;;23.58;;
51724;SDS011;37801;53.224;6.552;2023-02-15T03:45:57;37.97;;;23.58;;
51724;SDS011;37801;53.224;6.552;2023-02-15T03:48:38;38.10;;;23.27;;
51724;SDS011;37801;53.224;6.552;2023-02-15T03:51:20;38.85;;;23.58;;
51724;SDS011;37801;53.224;6.552;2023-02-15T03:54:11;36.00;;;23.65;;
51724;SDS011;37801;53.224;6.552;2023-02-15T03:57:00;39.17;;;22.20;;
51724;SDS011;37801;53.224;6.552;2023-02-15T03:59:45;39.85;;;22.90;;
51724;SDS011;37801;53.224;6.552;2023-02-15T04:02:31;38.75;;;22.23;;
51724;SDS011;37801;53.224;6.552;2023-02-15T04:05:02;39.70;;;22.58;;
51724;SDS011;37801;53.224;6.552;2023-02-15T04:07:28;36.38;;;22.25;;
51724;SDS011;37801;53.224;6.552;2023-02-15T04:09:54;39.70;;;23.20;;
51724;SDS011;37801;53.224;6.552;2023-02-15T04:12:38;39.28;;;22.50;;
51724;SDS011;37801;53.224;6.552;2023-02-15T04:15:04;39.83;;;23.52;;
51724;SDS011;37801;53.224;6.552;2023-02-15T04:17:48;38.15;;;23.10;;
51724;SDS011;37801;53.224;6.552;2023-02-15T04:20:14;38.20;;;22.58;;
51724;SDS011;37801;53.224;6.552;2023-02-15T04:22:59;39.35;;;23.23;;
51724;SDS011;37801;53.224;6.552;2023-02-15T04:25:43;34.70;;;21.75;;
51724;SDS011;37801;53.224;6.552;2023-02-15T04:28:09;36.85;;;23.15;;
51724;SDS011;37801;53.224;6.552;2023-02-15T04:30:35;38.28;;;22.25;;
51724;SDS011;37801;53.224;6.552;2023-02-15T04:33:00;38.20;;;23.02;;
51724;SDS011;37801;53.224;6.552;2023-02-15T04:35:26;40.45;;;23.15;;
51724;SDS011;37801;53.224;6.552;2023-02-15T04:37:52;35.65;;;21.95;;
51724;SDS011;37801;53.224;6.552;2023-02-15T04:40:17;38.10;;;23.30;;
51724;SDS011;37801;53.224;6.552;2023-02-15T04:42:43;35.65;;;22.95;;
51724;SDS011;37801;53.224;6.552;2023-02-15T04:45:09;40.85;;;22.92;;
51724;SDS011;37801;53.224;6.552;2023-02-15T04:47:35;38.35;;;22.63;;
51724;SDS011;37801;53.224;6.552;2023-02-15T04:50:00;37.58;;;22.92;;
51724;SDS011;37801;53.224;6.552;2023-02-15T04:52:26;37.45;;;21.85;;
51724;SDS011;37801;53.224;6.552;2023-02-15T04:54:52;36.70;;;22.13;;
51724;SDS011;37801;53.224;6.552;2023-02-15T04:57:18;36.50;;;22.52;;
51724;SDS011;37801;53.224;6.552;2023-02-15T04:59:43;35.78;;;22.15;;
51724;SDS011;37801;53.224;6.552;2023-02-15T05:02:09;35.45;;;22.15;;
51724;SDS011;37801;53.224;6.552;2023-02-15T05:04:35;37.88;;;23.35;;
51724;SDS011;37801;53.224;6.552;2023-02-15T05:07:01;38.45;;;23.83;;
51724;SDS011;37801;53.224;6.552;2023-02-15T05:09:26;37.17;;;23.65;;
51724;SDS011;37801;53.224;6.552;2023-02-15T05:11:52;34.60;;;21.80;;
51724;SDS011;37801;53.224;6.552;2023-02-15T05:14:18;36.63;;;22.55;;
51724;SDS011;37801;53.224;6.552;2023-02-15T05:16:43;36.05;;;22.70;;
51724;SDS011;37801;53.224;6.552;2023-02-15T05:19:09;37.58;;;22.58;;
51724;SDS011;37801;53.224;6.552;2023-02-15T05:21:35;36.42;;;23.02;;
51724;SDS011;37801;53.224;6.552;2023-02-15T05:24:01;38.25;;;22.92;;
51724;SDS011;37801;53.224;6.552;2023-02-15T05:26:46;38.22;;;22.95;;
51724;SDS011;37801;53.224;6.552;2023-02-15T05:31:56;36.00;;;22.17;;
51724;SDS011;37801;53.224;6.552;2023-02-15T05:34:22;38.17;;;22.67;;
51724;SDS011;37801;53.224;6.552;2023-02-15T05:36:47;42.67;;;23.90;;
51724;SDS011;37801;53.224;6.552;2023-02-15T05:39:13;38.97;;;22.95;;
51724;SDS011;37801;53.224;6.552;2023-02-15T05:41:39;42.90;;;25.25;;
51724;SDS011;37801;53.224;6.552;2023-02-15T05:44:05;43.22;;;25.88;;
51724;SDS011;37801;53.224;6.552;2023-02-15T05:46:30;41.40;;;25.40;;
51724;SDS011;37801;53.224;6.552;2023-02-15T05:48:56;45.67;;;25.52;;
51724;SDS011;37801;53.224;6.552;2023-02-15T05:51:22;44.22;;;26.70;;
51724;SDS011;37801;53.224;6.552;2023-02-15T05:53:47;44.30;;;26.40;;
51724;SDS011;37801;53.224;6.552;2023-02-15T05:56:13;46.33;;;26.00;;
51724;SDS011;37801;53.224;6.552;2023-02-15T05:58:39;45.72;;;27.15;;
51724;SDS011;37801;53.224;6.552;2023-02-15T06:01:16;44.67;;;26.30;;
51724;SDS011;37801;53.224;6.552;2023-02-15T06:03:44;42.50;;;26.13;;
51724;SDS011;37801;53.224;6.552;2023-02-15T06:06:10;44.75;;;25.85;;
51724;SDS011;37801;53.224;6.552;2023-02-15T06:08:36;45.47;;;26.48;;
51724;SDS011;37801;53.224;6.552;2023-02-15T06:11:03;44.72;;;26.85;;
51724;SDS011;37801;53.224;6.552;2023-02-15T06:13:30;47.22;;;28.25;;
51724;SDS011;37801;53.224;6.552;2023-02-15T06:15:56;47.10;;;28.05;;
51724;SDS011;37801;53.224;6.552;2023-02-15T06:18:22;47.20;;;27.50;;
51724;SDS011;37801;53.224;6.552;2023-02-15T06:20:48;44.45;;;27.70;;
51724;SDS011;37801;53.224;6.552;2023-02-15T06:23:14;50.33;;;28.00;;
51724;SDS011;37801;53.224;6.552;2023-02-15T06:25:40;48.25;;;27.92;;
51724;SDS011;37801;53.224;6.552;2023-02-15T06:28:06;45.85;;;27.80;;
51724;SDS011;37801;53.224;6.552;2023-02-15T06:30:32;44.20;;;27.45;;
51724;SDS011;37801;53.224;6.552;2023-02-15T06:32:58;44.95;;;27.48;;
51724;SDS011;37801;53.224;6.552;2023-02-15T06:35:24;44.35;;;27.25;;
51724;SDS011;37801;53.224;6.552;2023-02-15T06:37:50;45.80;;;27.05;;
51724;SDS011;37801;53.224;6.552;2023-02-15T06:40:15;45.38;;;26.75;;
51724;SDS011;37801;53.224;6.552;2023-02-15T06:42:41;45.45;;;27.13;;
51724;SDS011;37801;53.224;6.552;2023-02-15T06:45:08;44.90;;;27.27;;
51724;SDS011;37801;53.224;6.552;2023-02-15T06:47:35;48.65;;;27.70;;
51724;SDS011;37801;53.224;6.552;2023-02-15T06:50:00;45.33;;;26.55;;
51724;SDS011;37801;53.224;6.552;2023-02-15T06:52:26;45.40;;;26.30;;
51724;SDS011;37801;53.224;6.552;2023-02-15T06:54:53;42.65;;;26.17;;
51724;SDS011;37801;53.224;6.552;2023-02-15T06:57:19;41.67;;;25.40;;
51724;SDS011;37801;53.224;6.552;2023-02-15T06:59:44;43.53;;;25.65;;
51724;SDS011;37801;53.224;6.552;2023-02-15T07:02:11;38.33;;;22.92;;
51724;SDS011;37801;53.224;6.552;2023-02-15T07:04:37;40.63;;;24.13;;
51724;SDS011;37801;53.224;6.552;2023-02-15T07:07:03;40.03;;;24.92;;
51724;SDS011;37801;53.224;6.552;2023-02-15T07:09:29;40.15;;;23.45;;
51724;SDS011;37801;53.224;6.552;2023-02-15T07:11:55;40.20;;;23.85;;
51724;SDS011;37801;53.224;6.552;2023-02-15T07:14:39;39.25;;;23.60;;
51724;SDS011;37801;53.224;6.552;2023-02-15T07:17:05;36.80;;;22.90;;
51724;SDS011;37801;53.224;6.552;2023-02-15T07:19:31;35.67;;;22.23;;
51724;SDS011;37801;53.224;6.552;2023-02-15T07:21:57;39.40;;;22.50;;
51724;SDS011;37801;53.224;6.552;2023-02-15T07:24:23;37.15;;;23.00;;
51724;SDS011;37801;53.224;6.552;2023-02-15T07:26:49;38.25;;;22.70;;
51724;SDS011;37801;53.224;6.552;2023-02-15T07:29:15;33.65;;;21.77;;
51724;SDS011;37801;53.224;6.552;2023-02-15T07:31:41;39.17;;;23.45;;
51724;SDS011;37801;53.224;6.552;2023-02-15T07:34:10;34.88;;;21.55;;
51724;SDS011;37801;53.224;6.552;2023-02-15T07:36:36;34.08;;;21.73;;
51724;SDS011;37801;53.224;6.552;2023-02-15T07:39:02;35.30;;;20.92;;
51724;SDS011;37801;53.224;6.552;2023-02-15T07:41:28;33.40;;;21.48;;
51724;SDS011;37801;53.224;6.552;2023-02-15T07:43:54;33.72;;;21.35;;
51724;SDS011;37801;53.224;6.552;2023-02-15T07:46:19;36.25;;;20.95;;
51724;SDS011;37801;53.224;6.552;2023-02-15T07:48:45;31.98;;;20.67;;
51724;SDS011;37801;53.224;6.552;2023-02-15T07:51:12;34.22;;;21.45;;
51724;SDS011;37801;53.224;6.552;2023-02-15T07:53:39;35.67;;;21.27;;
51724;SDS011;37801;53.224;6.552;2023-02-15T07:56:10;35.17;;;21.45;;
51724;SDS011;37801;53.224;6.552;2023-02-15T07:58:36;34.70;;;20.58;;
51724;SDS011;37801;53.224;6.552;2023-02-15T08:01:25;32.65;;;20.33;;
51724;SDS011;37801;53.224;6.552;2023-02-15T08:03:58;32.42;;;20.15;;
51724;SDS011;37801;53.224;6.552;2023-02-15T08:06:25;33.40;;;20.40;;
51724;SDS011;37801;53.224;6.552;2023-02-15T08:08:53;34.42;;;21.10;;
51724;SDS011;37801;53.224;6.552;2023-02-15T08:11:23;34.10;;;21.20;;
51724;SDS011;37801;53.224;6.552;2023-02-15T08:13:54;32.65;;;20.67;;
51724;SDS011;37801;53.224;6.552;2023-02-15T08:18:51;33.60;;;20.33;;
51724;SDS011;37801;53.224;6.552;2023-02-15T08:21:18;33.70;;;21.30;;
51724;SDS011;37801;53.224;6.552;2023-02-15T08:23:45;32.92;;;20.98;;
51724;SDS011;37801;53.224;6.552;2023-02-15T08:26:11;33.47;;;21.05;;
51724;SDS011;37801;53.224;6.552;2023-02-15T08:28:37;34.25;;;21.60;;
51724;SDS011;37801;53.224;6.552;2023-02-15T08:31:04;35.53;;;23.17;;
51724;SDS011;37801;53.224;6.552;2023-02-15T08:33:31;34.67;;;20.20;;
51724;SDS011;37801;53.224;6.552;2023-02-15T08:35:56;34.60;;;21.63;;
51724;SDS011;37801;53.224;6.552;2023-02-15T08:38:27;33.60;;;21.10;;
51724;SDS011;37801;53.224;6.552;2023-02-15T08:40:52;33.97;;;21.08;;
51724;SDS011;37801;53.224;6.552;2023-02-15T08:43:18;35.05;;;20.70;;
51724;SDS011;37801;53.224;6.552;2023-02-15T08:45:44;37.45;;;21.95;;
51724;SDS011;37801;53.224;6.552;2023-02-15T08:48:09;37.00;;;23.05;;
51724;SDS011;37801;53.224;6.552;2023-02-15T08:50:35;36.60;;;21.98;;
51724;SDS011;37801;53.224;6.552;2023-02-15T08:53:01;38.20;;;22.63;;
51724;SDS011;37801;53.224;6.552;2023-02-15T08:55:27;38.83;;;23.15;;
51724;SDS011;37801;53.224;6.552;2023-02-15T08:57:52;35.60;;;20.83;;
51724;SDS011;37801;53.224;6.552;2023-02-15T09:00:20;37.13;;;23.55;;
51724;SDS011;37801;53.224;6.552;2023-02-15T09:02:50;36.58;;;22.23;;
51724;SDS011;37801;53.224;6.552;2023-02-15T09:05:15;31.33;;;20.80;;
51724;SDS011;37801;53.224;6.552;2023-02-15T09:07:41;38.55;;;21.52;;
51724;SDS011;37801;53.224;6.552;2023-02-15T09:10:07;37.55;;;22.80;;
51724;SDS011;37801;53.224;6.552;2023-02-15T09:12:33;34.60;;;21.05;;
51724;SDS011;37801;53.224;6.552;2023-02-15T09:14:59;34.50;;;20.95;;
51724;SDS011;37801;53.224;6.552;2023-02-15T09:17:24;33.78;;;21.33;;
51724;SDS011;37801;53.224;6.552;2023-02-15T09:19:50;34.38;;;22.70;;
51724;SDS011;37801;53.224;6.552;2023-02-15T09:22:16;34.88;;;22.20;;
51724;SDS011;37801;53.224;6.552;2023-02-15T09:24:42;32.70;;;20.85;;
51724;SDS011;37801;53.224;6.552;2023-02-15T09:27:07;35.63;;;21.50;;
51724;SDS011;37801;53.224;6.552;2023-02-15T09:29:33;35.30;;;21.73;;
51724;SDS011;37801;53.224;6.552;2023-02-15T09:31:59;36.17;;;22.48;;
51724;SDS011;37801;53.224;6.552;2023-02-15T09:34:25;35.78;;;22.77;;
51724;SDS011;37801;53.224;6.552;2023-02-15T09:36:50;31.83;;;21.52;;
51724;SDS011;37801;53.224;6.552;2023-02-15T09:39:18;35.30;;;22.33;;
51724;SDS011;37801;53.224;6.552;2023-02-15T09:53:09;35.28;;;21.60;;
51724;SDS011;37801;53.224;6.552;2023-02-15T09:58:23;34.97;;;22.17;;
51724;SDS011;37801;53.224;6.552;2023-02-15T10:01:09;37.10;;;21.98;;
51724;SDS011;37801;53.224;6.552;2023-02-15T10:07:29;37.80;;;22.20;;
51724;SDS011;37801;53.224;6.552;2023-02-15T10:15:27;37.63;;;23.23;;
51724;SDS011;37801;53.224;6.552;2023-02-15T10:18:20;37.22;;;23.73;;
51724;SDS011;37801;53.224;6.552;2023-02-15T10:21:21;38.33;;;23.63;;
51724;SDS011;37801;53.224;6.552;2023-02-15T10:26:51;42.20;;;23.48;;
51724;SDS011;37801;53.224;6.552;2023-02-15T10:29:27;39.63;;;24.15;;
51724;SDS011;37801;53.224;6.552;2023-02-15T10:34:49;36.83;;;22.52;;
51724;SDS011;37801;53.224;6.552;2023-02-15T10:40:01;37.88;;;23.50;;
51724;SDS011;37801;53.224;6.552;2023-02-15T10:42:53;40.45;;;24.85;;
51724;SDS011;37801;53.224;6.552;2023-02-15T10:48:11;36.75;;;23.42;;
51724;SDS011;37801;53.224;6.552;2023-02-15T10:50:57;40.78;;;24.83;;
51724;SDS011;37801;53.224;6.552;2023-02-15T10:56:13;46.65;;;27.98;;
51724;SDS011;37801;53.224;6.552;2023-02-15T10:59:02;50.30;;;27.17;;
51724;SDS011;37801;53.224;6.552;2023-02-15T11:10:01;46.40;;;27.80;;
51724;SDS011;37801;53.224;6.552;2023-02-15T11:12:38;46.95;;;28.70;;
51724;SDS011;37801;53.224;6.552;2023-02-15T11:17:55;53.40;;;31.05;;
51724;SDS011;37801;53.224;6.552;2023-02-15T11:20:49;54.88;;;32.80;;
51724;SDS011;37801;53.224;6.552;2023-02-15T11:23:21;54.10;;;30.52;;
51724;SDS011;37801;53.224;6.552;2023-02-15T11:25:58;49.30;;;29.30;;
51724;SDS011;37801;53.224;6.552;2023-02-15T11:31:16;57.35;;;31.58;;
51724;SDS011;37801;53.224;6.552;2023-02-15T11:33:46;51.92;;;28.85;;
51724;SDS011;37801;53.224;6.552;2023-02-15T11:36:27;48.15;;;28.63;;
51724;SDS011;37801;53.224;6.552;2023-02-15T11:39:10;48.28;;;27.58;;
51724;SDS011;37801;53.224;6.552;2023-02-15T11:41:46;53.47;;;29.83;;
51724;SDS011;37801;53.224;6.552;2023-02-15T11:44:21;53.53;;;29.80;;
51724;SDS011;37801;53.224;6.552;2023-02-15T11:47:00;55.15;;;30.48;;
51724;SDS011;37801;53.224;6.552;2023-02-15T11:49:34;52.55;;;30.38;;
51724;SDS011;37801;53.224;6.552;2023-02-15T11:52:00;51.67;;;28.13;;
51724;SDS011;37801;53.224;6.552;2023-02-15T11:54:34;51.70;;;30.08;;
51724;SDS011;37801;53.224;6.552;2023-02-15T11:57:03;54.92;;;28.95;;
51724;SDS011;37801;53.224;6.552;2023-02-15T12:02:26;54.05;;;28.50;;
51724;SDS011;37801;53.224;6.552;2023-02-15T12:04:59;48.53;;;27.50;;
51724;SDS011;37801;53.224;6.552;2023-02-15T12:12:43;52.92;;;28.20;;
51724;SDS011;37801;53.224;6.552;2023-02-15T12:15:10;52.85;;;29.27;;
51724;SDS011;37801;53.224;6.552;2023-02-15T12:17:41;54.67;;;29.10;;
51724;SDS011;37801;53.224;6.552;2023-02-15T12:22:51;51.03;;;26.83;;
51724;SDS011;37801;53.224;6.552;2023-02-15T12:25:24;50.00;;;28.10;;
51724;SDS011;37801;53.224;6.552;2023-02-15T12:27:54;48.25;;;27.58;;
51724;SDS011;37801;53.224;6.552;2023-02-15T12:30:25;48.95;;;27.30;;
51724;SDS011;37801;53.224;6.552;2023-02-15T12:32:57;45.80;;;26.63;;
51724;SDS011;37801;53.224;6.552;2023-02-15T12:35:31;46.83;;;26.77;;
51724;SDS011;37801;53.224;6.552;2023-02-15T12:38:19;50.40;;;27.02;;
51724;SDS011;37801;53.224;6.552;2023-02-15T12:41:02;46.58;;;27.27;;
51724;SDS011;37801;53.224;6.552;2023-02-15T12:43:34;49.55;;;27.88;;
51724;SDS011;37801;53.224;6.552;2023-02-15T12:46:21;48.40;;;27.73;;
51724;SDS011;37801;53.224;6.552;2023-02-15T12:49:04;54.35;;;30.40;;
51724;SDS011;37801;53.224;6.552;2023-02-15T12:56:52;54.13;;;29.52;;
51724;SDS011;37801;53.224;6.552;2023-02-15T12:59:18;55.33;;;29.33;;
51724;SDS011;37801;53.224;6.552;2023-02-15T13:01:47;58.92;;;30.83;;
51724;SDS011;37801;53.224;6.552;2023-02-15T13:06:58;58.92;;;31.20;;
51724;SDS011;37801;53.224;6.552;2023-02-15T13:12:32;58.63;;;29.85;;
51724;SDS011;37801;53.224;6.552;2023-02-15T13:14:56;56.80;;;31.23;;
51724;SDS011;37801;53.224;6.552;2023-02-15T13:17:29;59.67;;;31.70;;
51724;SDS011;37801;53.224;6.552;2023-02-15T13:20:04;48.83;;;29.40;;
51724;SDS011;37801;53.224;6.552;2023-02-15T13:22:53;53.53;;;29.20;;
51724;SDS011;37801;53.224;6.552;2023-02-15T13:25:30;60.15;;;30.85;;
51724;SDS011;37801;53.224;6.552;2023-02-15T13:28:05;60.88;;;32.63;;
51724;SDS011;37801;53.224;6.552;2023-02-15T13:30:36;55.45;;;32.53;;
51724;SDS011;37801;53.224;6.552;2023-02-15T13:41:04;55.33;;;30.67;;
51724;SDS011;37801;53.224;6.552;2023-02-15T13:46:23;55.75;;;30.80;;
51724;SDS011;37801;53.224;6.552;2023-02-15T13:51:54;50.80;;;29.80;;
51724;SDS011;37801;53.224;6.552;2023-02-15T14:00:08;55.17;;;30.83;;
51724;SDS011;37801;53.224;6.552;2023-02-15T14:05:48;54.55;;;30.63;;
51724;SDS011;37801;53.224;6.552;2023-02-15T14:14:22;52.90;;;28.88;;
51724;SDS011;37801;53.224;6.552;2023-02-15T14:20:11;48.03;;;28.98;;
51724;SDS011;37801;53.224;6.552;2023-02-15T14:25:41;52.25;;;28.98;;
51724;SDS011;37801;53.224;6.552;2023-02-15T14:28:42;46.50;;;26.17;;
51724;SDS011;37801;53.224;6.552;2023-02-15T14:31:11;47.97;;;28.27;;
51724;SDS011;37801;53.224;6.552;2023-02-15T14:33:57;47.00;;;27.08;;
51724;SDS011;37801;53.224;6.552;2023-02-15T14:36:23;45.13;;;26.83;;
51724;SDS011;37801;53.224;6.552;2023-02-15T14:42:03;49.35;;;27.15;;
51724;SDS011;37801;53.224;6.552;2023-02-15T14:44:44;46.28;;;26.50;;
51724;SDS011;37801;53.224;6.552;2023-02-15T14:49:44;50.17;;;27.15;;
51724;SDS011;37801;53.224;6.552;2023-02-15T14:52:10;41.55;;;26.00;;
51724;SDS011;37801;53.224;6.552;2023-02-15T15:04:30;45.90;;;25.33;;
51724;SDS011;37801;53.224;6.552;2023-02-15T15:07:02;43.72;;;24.83;;
51724;SDS011;37801;53.224;6.552;2023-02-15T15:09:31;41.08;;;24.48;;
51724;SDS011;37801;53.224;6.552;2023-02-15T15:12:14;40.15;;;23.23;;
51724;SDS011;37801;53.224;6.552;2023-02-15T15:14:46;43.75;;;24.33;;
51724;SDS011;37801;53.224;6.552;2023-02-15T15:17:13;44.58;;;25.98;;
51724;SDS011;37801;53.224;6.552;2023-02-15T15:39:42;41.85;;;24.70;;
51724;SDS011;37801;53.224;6.552;2023-02-15T15:41:42;42.00;;;25.27;;
51724;SDS011;37801;53.224;6.552;2023-02-15T15:47:39;41.60;;;24.50;;
51724;SDS011;37801;53.224;6.552;2023-02-15T15:50:40;44.30;;;24.05;;
51724;SDS011;37801;53.224;6.552;2023-02-15T15:53:13;43.53;;;26.38;;
51724;SDS011;37801;53.224;6.552;2023-02-15T15:55:44;44.83;;;26.27;;
51724;SDS011;37801;53.224;6.552;2023-02-15T15:58:13;47.88;;;26.35;;
51724;SDS011;37801;53.224;6.552;2023-02-15T16:00:43;43.80;;;26.15;;
51724;SDS011;37801;53.224;6.552;2023-02-15T16:03:25;46.53;;;26.33;;
51724;SDS011;37801;53.224;6.552;2023-02-15T16:05:52;44.95;;;25.85;;
51724;SDS011;37801;53.224;6.552;2023-02-15T16:08:36;46.53;;;26.00;;
51724;SDS011;37801;53.224;6.552;2023-02-15T16:16:13;43.33;;;24.73;;
51724;SDS011;37801;53.224;6.552;2023-02-15T16:18:55;41.60;;;23.83;;
51724;SDS011;37801;53.224;6.552;2023-02-15T16:21:27;45.63;;;25.70;;
51724;SDS011;37801;53.224;6.552;2023-02-15T16:26:50;49.42;;;27.60;;
51724;SDS011;37801;53.224;6.552;2023-02-15T16:32:19;40.40;;;23.90;;
51724;SDS011;37801;53.224;6.552;2023-02-15T16:35:12;44.40;;;25.67;;
51724;SDS011;37801;53.224;6.552;2023-02-15T16:37:39;48.72;;;25.95;;
51724;SDS011;37801;53.224;6.552;2023-02-15T16:40:05;43.03;;;25.25;;
51724;SDS011;37801;53.224;6.552;2023-02-15T16:42:31;42.55;;;25.23;;
51724;SDS011;37801;53.224;6.552;2023-02-15T16:45:08;49.30;;;27.02;;
51724;SDS011;37801;53.224;6.552;2023-02-15T16:47:40;43.67;;;26.08;;
51724;SDS011;37801;53.224;6.552;2023-02-15T16:50:16;51.75;;;27.33;;
51724;SDS011;37801;53.224;6.552;2023-02-15T16:52:44;45.33;;;25.27;;
51724;SDS011;37801;53.224;6.552;2023-02-15T16:55:19;43.08;;;26.02;;
51724;SDS011;37801;53.224;6.552;2023-02-15T16:57:47;45.15;;;26.27;;
51724;SDS011;37801;53.224;6.552;2023-02-15T17:00:21;44.47;;;26.83;;
51724;SDS011;37801;53.224;6.552;2023-02-15T17:02:55;41.15;;;24.05;;
51724;SDS011;37801;53.224;6.552;2023-02-15T17:05:30;43.85;;;24.13;;
51724;SDS011;37801;53.224;6.552;2023-02-15T17:13:24;47.55;;;27.10;;
51724;SDS011;37801;53.224;6.552;2023-02-15T17:18:23;47.33;;;27.42;;
51724;SDS011;37801;53.224;6.552;2023-02-15T17:20:49;43.05;;;25.70;;
51724;SDS011;37801;53.224;6.552;2023-02-15T17:25:58;46.63;;;25.90;;
51724;SDS011;37801;53.224;6.552;2023-02-15T17:28:36;45.33;;;26.60;;
51724;SDS011;37801;53.224;6.552;2023-02-15T17:31:06;45.35;;;26.70;;
51724;SDS011;37801;53.224;6.552;2023-02-15T17:38:40;48.58;;;27.27;;
51724;SDS011;37801;53.224;6.552;2023-02-15T17:41:31;51.65;;;29.17;;
51724;SDS011;37801;53.224;6.552;2023-02-15T17:43:59;48.97;;;27.13;;
51724;SDS011;37801;53.224;6.552;2023-02-15T17:46:26;52.50;;;27.48;;
51724;SDS011;37801;53.224;6.552;2023-02-15T17:48:58;46.17;;;27.20;;
51724;SDS011;37801;53.224;6.552;2023-02-15T17:51:24;46.45;;;27.38;;
51724;SDS011;37801;53.224;6.552;2023-02-15T17:53:50;44.80;;;26.42;;
51724;SDS011;37801;53.224;6.552;2023-02-15T17:56:39;41.88;;;24.70;;
51724;SDS011;37801;53.224;6.552;2023-02-15T17:59:05;45.30;;;26.13;;
51724;SDS011;37801;53.224;6.552;2023-02-15T18:01:31;41.92;;;25.65;;
51724;SDS011;37801;53.224;6.552;2023-02-15T18:04:22;47.35;;;26.92;;
51724;SDS011;37801;53.224;6.552;2023-02-15T18:07:08;43.30;;;25.17;;
51724;SDS011;37801;53.224;6.552;2023-02-15T18:10:01;43.27;;;25.57;;